createdAt,value
2019-05-09T00:02:15.082Z,93.40
2019-05-09T00:04:41.372Z,93.70
2019-05-09T00:07:07.617Z,93.70
2019-05-09T00:09:33.840Z,93.60
2019-05-09T00:12:00.059Z,94.00
2019-05-09T00:14:26.399Z,93.80
2019-05-09T00:16:53.174Z,93.60
2019-05-09T00:19:19.573Z,93.80
2019-05-09T00:21:54.050Z,93.80
2019-05-09T00:24:23.762Z,93.60
2019-05-09T00:26:49.696Z,93.80
2019-05-09T00:29:17.949Z,94.70
2019-05-09T00:32:03.472Z,94.30
2019-05-09T00:34:38.059Z,94.30
2019-05-09T00:37:04.462Z,95.00
2019-05-09T00:39:30.684Z,94.50
2019-05-09T00:41:56.888Z,94.60
2019-05-09T00:44:27.777Z,95.10
2019-05-09T00:46:55.964Z,94.90
2019-05-09T00:49:24.064Z,94.40
2019-05-09T00:51:50.335Z,94.40
2019-05-09T00:54:17.667Z,94.60
2019-05-09T00:56:43.974Z,94.70
2019-05-09T00:59:10.217Z,94.70
2019-05-09T01:01:36.527Z,94.80
2019-05-09T01:04:04.374Z,94.70
2019-05-09T01:06:30.891Z,94.70
2019-05-09T01:08:57.102Z,94.90
2019-05-09T01:11:24.375Z,94.80
2019-05-09T01:13:50.811Z,94.90
2019-05-09T01:16:17.142Z,94.90
2019-05-09T01:18:43.846Z,95.00
2019-05-09T01:21:13.219Z,94.90
2019-05-09T01:23:39.345Z,95.10
2019-05-09T01:26:05.748Z,95.10
2019-05-09T01:28:33.904Z,95.20
2019-05-09T01:31:00.170Z,95.10
2019-05-09T01:33:46.550Z,95.10
2019-05-09T01:36:14.447Z,95.00
2019-05-09T01:38:43.145Z,95.00
2019-05-09T01:41:22.839Z,95.30
2019-05-09T01:43:37.416Z,95.20
2019-05-09T01:46:04.126Z,95.30
2019-05-09T01:48:30.342Z,95.50
2019-05-09T01:50:56.601Z,95.60
2019-05-09T01:53:24.907Z,95.70
2019-05-09T01:55:57.228Z,95.80
2019-05-09T01:58:25.360Z,95.80
2019-05-09T02:00:53.822Z,95.90
2019-05-09T02:03:19.712Z,96.00
2019-05-09T02:05:45.935Z,96.00
2019-05-09T02:08:14.250Z,96.20
2019-05-09T02:10:40.767Z,96.30
2019-05-09T02:13:06.972Z,96.10
2019-05-09T02:15:43.850Z,96.20
2019-05-09T02:18:13.718Z,96.10
2019-05-09T02:20:40.119Z,95.90
2019-05-09T02:23:06.361Z,95.90
2019-05-09T02:25:33.533Z,95.90
2019-05-09T02:27:59.914Z,95.80
2019-05-09T02:30:26.349Z,95.70
2019-05-09T02:32:54.658Z,95.80
2019-05-09T02:35:20.786Z,95.80
2019-05-09T02:37:49.786Z,96.10
2019-05-09T02:40:18.504Z,95.70
2019-05-09T02:42:43.574Z,96.00
2019-05-09T02:45:10.885Z,95.80
2019-05-09T02:47:38.522Z,95.80
2019-05-09T02:50:08.929Z,95.80
2019-05-09T02:52:34.461Z,95.70
2019-05-09T02:55:00.715Z,95.60
2019-05-09T02:57:29.432Z,95.60
2019-05-09T03:00:00.395Z,95.60
2019-05-09T03:02:31.423Z,95.60
2019-05-09T03:04:58.583Z,95.50
2019-05-09T03:07:43.441Z,95.70
2019-05-09T03:10:10.185Z,95.70
2019-05-09T03:12:39.680Z,95.60
2019-05-09T03:15:05.618Z,95.60
2019-05-09T03:17:31.957Z,95.60
2019-05-09T03:19:58.688Z,95.70
2019-05-09T03:22:25.275Z,95.90
2019-05-09T03:24:51.869Z,96.00
2019-05-09T03:27:20.212Z,96.10
2019-05-09T03:29:51.559Z,96.00
2019-05-09T03:32:19.425Z,95.90
2019-05-09T03:34:47.783Z,95.90
2019-05-09T03:37:14.137Z,95.90
2019-05-09T03:39:40.528Z,95.90
2019-05-09T03:42:07.906Z,96.10
2019-05-09T03:44:38.502Z,96.10
2019-05-09T03:47:09.720Z,96.00
2019-05-09T03:49:37.585Z,96.00
2019-05-09T03:52:03.961Z,96.00
2019-05-09T03:54:30.157Z,96.20
2019-05-09T03:57:03.844Z,96.30
2019-05-09T03:59:30.295Z,96.40
2019-05-09T04:01:58.783Z,96.40
2019-05-09T04:04:24.688Z,96.40
2019-05-09T04:06:50.986Z,96.20
2019-05-09T04:09:18.007Z,96.10
2019-05-09T04:11:44.398Z,96.00
2019-05-09T04:14:13.592Z,95.90
2019-05-09T04:16:39.842Z,95.60
2019-05-09T04:19:08.056Z,95.70
2019-05-09T04:21:34.297Z,95.50
2019-05-09T04:24:00.585Z,95.50
2019-05-09T04:26:31.774Z,95.00
2019-05-09T04:28:57.981Z,94.40
2019-05-09T04:31:24.282Z,94.20
2019-05-09T04:33:50.540Z,94.30
2019-05-09T04:36:18.742Z,94.00
2019-05-09T04:38:47.155Z,93.70
2019-05-09T04:41:18.371Z,93.70
2019-05-09T04:43:43.071Z,93.60
2019-05-09T04:46:13.019Z,94.00
2019-05-09T04:48:37.756Z,94.20
2019-05-09T04:51:07.616Z,93.50
2019-05-09T04:53:34.391Z,93.30
2019-05-09T04:56:07.211Z,93.50
2019-05-09T04:58:33.741Z,93.90
2019-05-09T05:01:14.153Z,94.20
2019-05-09T05:03:41.068Z,94.20
2019-05-09T05:06:07.758Z,94.40
2019-05-09T05:08:34.093Z,94.00
2019-05-09T05:11:00.346Z,93.80
2019-05-09T05:13:29.505Z,93.60
2019-05-09T05:15:54.874Z,93.50
2019-05-09T05:18:21.152Z,92.80
2019-05-09T05:20:48.151Z,91.70
2019-05-09T05:23:18.238Z,91.30
2019-05-09T05:25:44.707Z,91.10
2019-05-09T05:28:11.164Z,90.00
2019-05-09T05:30:37.561Z,87.30
2019-05-09T05:33:07.976Z,78.40
2019-05-09T05:35:37.571Z,70.10
2019-05-09T05:38:03.811Z,67.80
2019-05-09T05:40:33.201Z,67.00
2019-05-09T05:42:58.653Z,64.80
2019-05-09T05:45:28.527Z,64.80
2019-05-09T05:47:59.569Z,63.10
2019-05-09T05:50:27.908Z,62.40
2019-05-09T05:52:54.372Z,59.10
2019-05-09T05:55:20.690Z,56.50
2019-05-09T05:57:47.836Z,54.40
2019-05-09T06:00:18.039Z,51.80
2019-05-09T06:02:44.441Z,50.60
2019-05-09T06:05:10.886Z,48.90
2019-05-09T06:07:37.773Z,46.00
2019-05-09T06:10:04.562Z,44.80
2019-05-09T06:12:30.865Z,43.40
2019-05-09T06:14:58.200Z,45.50
2019-05-09T06:17:24.623Z,46.90
2019-05-09T06:19:50.864Z,45.60
2019-05-09T06:22:18.322Z,43.70
2019-05-09T06:24:44.864Z,40.90
2019-05-09T06:27:11.084Z,40.40
2019-05-09T06:29:38.633Z,40.80
2019-05-09T06:32:05.157Z,38.00
2019-05-09T06:34:31.359Z,36.40
2019-05-09T06:36:58.604Z,36.50
2019-05-09T06:39:25.063Z,36.40
2019-05-09T06:41:51.394Z,34.50
2019-05-09T06:44:28.734Z,35.20
2019-05-09T06:46:58.601Z,36.30
2019-05-09T06:49:29.303Z,37.00
2019-05-09T06:51:55.145Z,36.20
2019-05-09T06:54:21.347Z,36.40
2019-05-09T06:56:47.667Z,33.10
2019-05-09T06:59:13.938Z,33.80
2019-05-09T07:01:48.253Z,34.20
2019-05-09T07:04:33.439Z,36.00
2019-05-09T07:07:01.673Z,36.00
2019-05-09T07:12:31.386Z,34.70
2019-05-09T07:14:58.266Z,37.30
2019-05-09T07:17:24.732Z,34.20
2019-05-09T07:20:11.226Z,33.00
2019-05-09T07:22:48.275Z,33.10
2019-05-09T07:25:22.382Z,31.80
2019-05-09T07:27:48.588Z,33.60
2019-05-09T07:30:20.103Z,30.90
2019-05-09T07:32:57.977Z,31.60
2019-05-09T07:35:24.558Z,31.20
2019-05-09T07:37:50.886Z,31.00
2019-05-09T07:40:18.079Z,30.60
2019-05-09T07:42:44.617Z,29.90
2019-05-09T07:45:10.989Z,29.20
2019-05-09T07:47:38.752Z,27.90
2019-05-09T07:50:08.224Z,28.40
2019-05-09T07:52:33.788Z,26.20
2019-05-09T07:55:00.270Z,25.90
2019-05-09T07:57:28.536Z,26.40
2019-05-09T07:59:54.611Z,26.60
2019-05-09T08:02:21.133Z,25.80
2019-05-09T08:04:48.945Z,26.10
2019-05-09T08:07:17.459Z,27.30
2019-05-09T08:09:43.772Z,26.70
2019-05-09T08:12:10.105Z,28.50
2019-05-09T08:14:37.769Z,30.00
2019-05-09T08:17:04.781Z,28.30
2019-05-09T08:19:31.030Z,26.20
2019-05-09T08:21:57.646Z,25.80
2019-05-09T08:24:23.977Z,25.00
2019-05-09T08:26:50.223Z,25.40
2019-05-09T08:29:17.857Z,25.10
2019-05-09T08:31:45.666Z,25.10
2019-05-09T08:34:12.856Z,28.60
2019-05-09T08:36:39.138Z,28.30
2019-05-09T08:39:08.191Z,28.90
2019-05-09T08:41:34.573Z,25.90
2019-05-09T08:44:01.095Z,24.90
2019-05-09T08:46:28.600Z,25.20
2019-05-09T08:48:57.598Z,25.60
2019-05-09T08:51:37.145Z,23.90
2019-05-09T08:53:57.815Z,22.20
2019-05-09T08:56:24.240Z,21.90
2019-05-09T08:58:51.565Z,22.60
2019-05-09T09:01:29.693Z,24.40
2019-05-09T09:03:48.298Z,27.10
2019-05-09T09:06:14.194Z,28.20
2019-05-09T09:08:40.365Z,30.10
2019-05-09T09:11:08.654Z,30.80
2019-05-09T09:13:34.648Z,32.60
2019-05-09T09:16:14.407Z,26.90
2019-05-09T09:18:28.937Z,28.80
2019-05-09T09:20:55.106Z,31.80
2019-05-09T09:23:21.298Z,34.00
2019-05-09T09:25:48.770Z,31.10
2019-05-09T09:28:15.321Z,28.00
2019-05-09T09:30:41.557Z,25.90
2019-05-09T09:33:11.300Z,27.10
2019-05-09T09:35:38.071Z,28.10
2019-05-09T09:38:04.063Z,30.60
2019-05-09T09:40:30.263Z,30.00
2019-05-09T09:42:58.105Z,27.80
2019-05-09T09:45:24.626Z,26.70
2019-05-09T09:47:50.789Z,28.10
2019-05-09T09:50:17.719Z,27.60
2019-05-09T09:52:44.140Z,27.30
2019-05-09T09:55:10.722Z,28.50
2019-05-09T09:57:37.766Z,31.60
2019-05-09T10:00:25.771Z,30.40
2019-05-09T10:02:51.983Z,28.00
2019-05-09T10:05:18.462Z,29.30
2019-05-09T10:07:44.754Z,31.00
2019-05-09T10:10:29.918Z,33.30
2019-05-09T10:13:02.743Z,36.10
2019-05-09T10:15:38.536Z,37.80
2019-05-09T10:18:12.300Z,39.60
2019-05-09T10:20:40.381Z,33.80
2019-05-09T10:23:15.204Z,33.50
2019-05-09T10:25:34.703Z,32.90
2019-05-09T10:28:00.893Z,35.40
2019-05-09T10:30:28.863Z,36.20
2019-05-09T10:32:55.018Z,37.80
2019-05-09T10:35:21.519Z,39.60
2019-05-09T10:37:48.530Z,44.20
2019-05-09T10:40:20.700Z,45.00
2019-05-09T10:42:54.377Z,41.60
2019-05-09T10:45:22.506Z,38.70
2019-05-09T10:47:48.773Z,33.70
2019-05-09T10:50:14.955Z,33.10
2019-05-09T10:52:41.226Z,31.30
2019-05-09T10:55:09.090Z,32.60
2019-05-09T10:57:41.696Z,33.00
2019-05-09T11:00:08.679Z,37.30
2019-05-09T11:02:35.200Z,39.00
2019-05-09T11:05:01.461Z,41.30
2019-05-09T11:07:29.013Z,43.60
2019-05-09T11:09:58.553Z,44.70
2019-05-09T11:12:23.721Z,46.30
2019-05-09T11:14:49.906Z,47.00
2019-05-09T11:17:19.332Z,46.80
2019-05-09T11:19:44.285Z,47.40
2019-05-09T11:22:10.499Z,49.50
2019-05-09T11:24:45.429Z,51.40
2019-05-09T11:27:04.909Z,53.60
2019-05-09T11:29:33.366Z,57.00
2019-05-09T11:31:59.553Z,59.60
2019-05-09T11:34:26.764Z,59.80
2019-05-09T11:36:55.065Z,59.90
2019-05-09T11:39:35.488Z,61.40
2019-05-09T11:41:49.925Z,59.70
2019-05-09T11:44:18.283Z,58.70
2019-05-09T11:46:44.333Z,60.60
2019-05-09T11:49:10.499Z,63.30
2019-05-09T11:51:36.693Z,64.50
2019-05-09T11:54:02.956Z,59.40
2019-05-09T11:56:29.132Z,58.80
2019-05-09T11:58:55.340Z,57.80
2019-05-09T12:01:21.604Z,52.20
2019-05-09T12:03:54.375Z,49.30
2019-05-09T12:06:20.732Z,47.90
2019-05-09T12:08:48.350Z,47.70
2019-05-09T12:11:25.987Z,43.50
2019-05-09T12:13:52.661Z,46.30
2019-05-09T12:16:19.001Z,47.20
2019-05-09T12:18:45.328Z,45.90
2019-05-09T12:21:11.501Z,46.60
2019-05-09T12:23:37.878Z,50.60
2019-05-09T12:26:04.187Z,49.60
2019-05-09T12:28:30.390Z,50.30
2019-05-09T12:30:57.572Z,49.60
2019-05-09T12:33:23.909Z,50.40
2019-05-09T12:35:50.213Z,51.80
2019-05-09T12:38:18.116Z,51.80
2019-05-09T12:40:44.560Z,49.90
2019-05-09T12:43:10.734Z,49.40
2019-05-09T12:45:38.747Z,49.10
2019-05-09T12:48:14.665Z,47.60
2019-05-09T12:50:33.195Z,46.10
2019-05-09T12:52:59.456Z,44.90
2019-05-09T12:55:27.578Z,46.20
2019-05-09T12:57:53.826Z,45.10
2019-05-09T13:00:20.670Z,45.00
2019-05-09T13:02:46.886Z,44.00
2019-05-09T13:05:13.493Z,44.00
2019-05-09T13:07:42.313Z,42.70
2019-05-09T13:10:08.958Z,44.30
2019-05-09T13:12:38.579Z,43.50
2019-05-09T13:15:04.072Z,41.60
2019-05-09T13:17:41.289Z,42.80
2019-05-09T13:20:09.579Z,41.90
2019-05-09T13:22:35.787Z,43.30
2019-05-09T13:25:04.547Z,43.30
2019-05-09T13:27:30.745Z,42.60
2019-05-09T13:29:56.943Z,43.00
2019-05-09T13:32:23.350Z,43.50
2019-05-09T13:34:49.500Z,44.90
2019-05-09T13:37:18.583Z,45.10
2019-05-09T13:39:43.782Z,44.90
2019-05-09T13:42:10.062Z,44.80
2019-05-09T13:44:41.096Z,45.50
2019-05-09T13:47:04.405Z,44.30
2019-05-09T13:49:30.716Z,43.40
2019-05-09T13:52:01.195Z,44.90
2019-05-09T13:54:25.148Z,45.00
2019-05-09T13:56:57.574Z,44.20
2019-05-09T13:59:19.449Z,43.30
2019-05-09T14:01:47.836Z,44.70
2019-05-09T14:04:13.950Z,43.00
2019-05-09T14:06:40.144Z,42.90
2019-05-09T14:09:10.147Z,40.30
2019-05-09T14:11:35.799Z,41.50
2019-05-09T14:14:02.224Z,41.10
2019-05-09T14:16:28.971Z,41.70
2019-05-09T14:18:58.263Z,41.00
2019-05-09T14:21:24.592Z,42.20
2019-05-09T14:24:06.557Z,43.30
2019-05-09T14:26:19.187Z,43.10
2019-05-09T14:28:45.358Z,43.40
2019-05-09T14:31:11.538Z,42.00
2019-05-09T14:33:39.592Z,43.20
2019-05-09T14:36:08.073Z,43.50
2019-05-09T14:38:33.973Z,41.40
2019-05-09T14:41:01.246Z,43.00
2019-05-09T14:43:29.541Z,44.40
2019-05-09T14:45:57.447Z,44.10
2019-05-09T14:48:23.895Z,44.10
2019-05-09T14:50:50.125Z,45.10
2019-05-09T14:53:18.172Z,49.20
2019-05-09T14:55:44.728Z,59.10
2019-05-09T14:58:11.116Z,64.40
2019-05-09T15:00:38.648Z,64.70
2019-05-09T15:03:05.177Z,58.90
2019-05-09T15:05:31.339Z,58.30
2019-05-09T15:07:59.353Z,57.30
2019-05-09T15:10:25.598Z,56.40
2019-05-09T15:12:51.855Z,56.50
2019-05-09T15:15:18.639Z,54.40
2019-05-09T15:17:44.923Z,54.70
2019-05-09T15:20:11.401Z,54.80
2019-05-09T15:22:38.711Z,54.40
2019-05-09T15:25:05.464Z,54.20
2019-05-09T15:27:31.691Z,54.30
2019-05-09T15:29:58.548Z,55.20
2019-05-09T15:32:24.946Z,54.00
2019-05-09T15:34:51.143Z,52.60
2019-05-09T15:37:18.700Z,53.70
2019-05-09T15:39:45.129Z,52.70
2019-05-09T15:42:11.519Z,53.00
2019-05-09T15:44:37.761Z,52.40
2019-05-09T15:47:07.585Z,52.90
2019-05-09T15:49:33.999Z,53.90
2019-05-09T15:52:00.223Z,54.50
2019-05-09T15:54:26.381Z,53.10
2019-05-09T15:56:52.563Z,52.00
2019-05-09T15:59:18.733Z,53.60
2019-05-09T16:01:44.999Z,53.90
2019-05-09T16:04:11.207Z,54.20
2019-05-09T16:06:39.204Z,52.70
2019-05-09T16:09:09.228Z,52.70
2019-05-09T16:11:33.991Z,52.30
2019-05-09T16:14:03.017Z,52.70
2019-05-09T16:16:28.766Z,53.30
2019-05-09T16:18:55.111Z,53.00
2019-05-09T16:21:21.440Z,52.80
2019-05-09T16:23:48.659Z,54.00
2019-05-09T16:26:15.135Z,54.50
2019-05-09T16:28:41.490Z,54.00
2019-05-09T16:31:07.676Z,54.40
2019-05-09T16:33:33.970Z,54.30
2019-05-09T16:36:01.547Z,54.70
2019-05-09T16:38:41.282Z,56.10
2019-05-09T16:40:58.252Z,55.30
2019-05-09T16:43:24.560Z,55.70
2019-05-09T16:45:51.058Z,55.50
2019-05-09T16:48:18.492Z,55.20
2019-05-09T16:50:57.744Z,55.70
2019-05-09T16:53:14.095Z,54.70
2019-05-09T16:55:40.496Z,54.80
2019-05-09T16:58:08.627Z,54.10
2019-05-09T17:00:40.825Z,53.90
2019-05-09T17:03:08.124Z,54.00
2019-05-09T17:05:34.548Z,52.10
2019-05-09T17:08:00.726Z,50.90
2019-05-09T17:10:26.897Z,51.50
2019-05-09T17:12:53.066Z,51.70
2019-05-09T17:15:19.621Z,51.90
2019-05-09T17:17:47.667Z,52.40
2019-05-09T17:20:19.139Z,53.40
2019-05-09T17:23:11.598Z,53.00
2019-05-09T17:25:31.751Z,53.70
2019-05-09T17:27:59.469Z,54.50
2019-05-09T17:30:28.463Z,54.30
2019-05-09T17:33:01.192Z,54.40
2019-05-09T17:35:27.979Z,54.20
2019-05-09T17:37:55.370Z,54.70
2019-05-09T17:40:21.535Z,55.20
2019-05-09T17:42:47.709Z,55.30
2019-05-09T17:45:14.273Z,54.80
2019-05-09T17:47:40.460Z,55.20
2019-05-09T17:50:07.832Z,55.70
2019-05-09T17:52:34.174Z,55.80
2019-05-09T17:55:00.337Z,56.70
2019-05-09T17:57:27.928Z,56.30
2019-05-09T17:59:54.235Z,57.20
2019-05-09T18:02:21.447Z,56.90
2019-05-09T18:04:48.122Z,57.90
2019-05-09T18:07:14.693Z,57.90
2019-05-09T18:09:40.942Z,58.40
2019-05-09T18:12:08.310Z,59.30
2019-05-09T18:14:38.155Z,57.90
2019-05-09T18:17:04.013Z,57.90
2019-05-09T18:19:30.242Z,58.90
2019-05-09T18:21:57.852Z,58.50
2019-05-09T18:24:24.232Z,58.60
2019-05-09T18:26:50.427Z,59.10
2019-05-09T18:29:18.136Z,59.40
2019-05-09T18:31:48.247Z,59.10
2019-05-09T18:34:14.636Z,59.80
2019-05-09T18:36:40.840Z,60.10
2019-05-09T18:39:07.795Z,60.10
2019-05-09T18:41:34.274Z,61.30
2019-05-09T18:44:00.532Z,60.80
2019-05-09T18:46:28.019Z,60.90
2019-05-09T18:48:54.464Z,61.40
2019-05-09T18:51:20.644Z,62.40
2019-05-09T18:53:46.874Z,61.60
2019-05-09T18:56:13.131Z,62.00
2019-05-09T18:58:39.386Z,62.30
2019-05-09T19:01:05.540Z,62.60
2019-05-09T19:03:31.733Z,62.60
2019-05-09T19:05:57.913Z,63.10
2019-05-09T19:08:24.347Z,63.10
2019-05-09T19:10:52.191Z,63.10
2019-05-09T19:13:19.011Z,63.30
2019-05-09T19:16:13.721Z,63.80
2019-05-09T19:18:47.645Z,64.10
2019-05-09T19:21:18.942Z,64.70
2019-05-09T19:23:45.134Z,65.10
2019-05-09T19:26:29.955Z,65.00
2019-05-09T19:28:56.164Z,65.50
2019-05-09T19:31:22.448Z,66.30
2019-05-09T19:33:48.628Z,67.10
2019-05-09T19:36:14.798Z,66.40
2019-05-09T19:38:40.990Z,66.80
2019-05-09T19:41:07.157Z,66.80
2019-05-09T19:43:35.610Z,66.50
2019-05-09T19:46:01.862Z,66.80
2019-05-09T19:48:28.074Z,67.20
2019-05-09T19:50:54.367Z,67.50
2019-05-09T19:53:20.596Z,67.40
2019-05-09T19:55:46.794Z,67.30
2019-05-09T19:58:13.066Z,67.10
2019-05-09T20:00:39.231Z,67.30
2019-05-09T20:03:05.401Z,67.70
2019-05-09T20:05:31.648Z,67.90
2019-05-09T20:07:58.085Z,68.20
2019-05-09T20:10:26.401Z,68.20
2019-05-09T20:13:12.367Z,68.40
2019-05-09T20:15:38.635Z,68.40
2019-05-09T20:18:04.847Z,68.60
2019-05-09T20:20:31.105Z,68.40
2019-05-09T20:22:57.333Z,68.00
2019-05-09T20:25:23.531Z,68.20
2019-05-09T20:27:49.830Z,68.10
2019-05-09T20:30:16.289Z,68.90
2019-05-09T20:32:42.484Z,69.00
2019-05-09T20:35:09.154Z,69.10
2019-05-09T20:37:35.339Z,69.30
2019-05-09T20:40:02.909Z,69.60
2019-05-09T20:42:29.389Z,69.30
2019-05-09T20:44:55.552Z,69.20
2019-05-09T20:47:21.827Z,69.80
2019-05-09T20:49:48.254Z,69.80
2019-05-09T20:52:14.491Z,69.70
2019-05-09T20:54:40.983Z,70.30
2019-05-09T20:57:07.364Z,70.80
2019-05-09T20:59:33.626Z,71.30
2019-05-09T21:01:59.822Z,71.30
2019-05-09T21:04:26.041Z,71.30
2019-05-09T21:06:52.367Z,72.30
2019-05-09T21:09:18.570Z,74.00
2019-05-09T21:11:44.901Z,74.70
2019-05-09T21:14:11.379Z,74.30
2019-05-09T21:16:37.758Z,73.90
2019-05-09T21:19:04.126Z,74.50
2019-05-09T21:21:30.395Z,73.70
2019-05-09T21:23:56.697Z,73.80
2019-05-09T21:26:22.855Z,73.70
2019-05-09T21:28:49.066Z,73.50
2019-05-09T21:31:15.249Z,74.10
2019-05-09T21:33:41.481Z,74.20
2019-05-09T21:36:07.861Z,74.70
2019-05-09T21:38:34.160Z,75.30
2019-05-09T21:41:02.783Z,75.20
2019-05-09T21:43:32.341Z,75.80
2019-05-09T21:45:58.730Z,75.90
2019-05-09T21:48:24.997Z,76.30
2019-05-09T21:50:51.228Z,76.20
2019-05-09T21:53:17.433Z,76.70
2019-05-09T21:55:43.647Z,76.90
2019-05-09T21:58:09.862Z,76.90
2019-05-09T22:00:39.879Z,77.20
2019-05-09T22:03:06.641Z,77.00
2019-05-09T22:05:34.340Z,76.80
2019-05-09T22:08:00.547Z,77.00
2019-05-09T22:10:26.914Z,77.00
2019-05-09T22:12:53.099Z,77.50
2019-05-09T22:15:19.364Z,77.60
2019-05-09T22:17:45.537Z,77.40
2019-05-09T22:20:13.959Z,77.40
2019-05-09T22:22:40.266Z,77.70
2019-05-09T22:25:07.729Z,77.50
2019-05-09T22:27:34.872Z,76.80
2019-05-09T22:30:03.718Z,77.40
2019-05-09T22:32:30.001Z,77.60
2019-05-09T22:34:56.424Z,77.50
2019-05-09T22:37:22.576Z,77.80
2019-05-09T22:39:48.850Z,78.00
2019-05-09T22:42:15.035Z,78.40
2019-05-09T22:44:42.192Z,78.50
2019-05-09T22:47:08.387Z,78.70
2019-05-09T22:49:34.685Z,79.10
2019-05-09T22:52:00.890Z,79.80
2019-05-09T22:54:27.065Z,79.80
2019-05-09T22:56:54.369Z,80.10
2019-05-09T22:59:20.553Z,80.40
2019-05-09T23:01:46.716Z,80.60
2019-05-09T23:04:12.900Z,80.50
2019-05-09T23:06:39.088Z,80.70
2019-05-09T23:09:05.368Z,81.00
2019-05-09T23:11:31.609Z,81.00
2019-05-09T23:13:57.803Z,82.30
2019-05-09T23:16:26.278Z,82.30
2019-05-09T23:18:52.859Z,81.90
2019-05-09T23:21:19.020Z,82.70
2019-05-09T23:24:05.054Z,82.40
2019-05-09T23:26:31.211Z,82.60
2019-05-09T23:28:57.495Z,82.90
2019-05-09T23:31:25.604Z,82.90
2019-05-09T23:33:51.841Z,82.80
2019-05-09T23:36:18.009Z,84.00
2019-05-09T23:39:02.910Z,83.20
2019-05-09T23:41:29.202Z,83.20
2019-05-09T23:43:55.408Z,83.60
2019-05-09T23:46:21.861Z,83.70
2019-05-09T23:48:48.074Z,83.70
2019-05-09T23:51:14.248Z,84.10
2019-05-09T23:53:40.421Z,83.60
2019-05-09T23:56:25.240Z,83.80
2019-05-09T23:59:09.909Z,83.80
